Time;durP1;ratioP1;P1;durP2;ratioP2;P2;SDS_P1;SDS_P2;PMS_P1;PMS_P2;Temp;Humidity;BMP_temperature;BMP_pressure;BME280_temperature;BME280_humidity;BME280_pressure;Samples;Min_cycle;Max_cycle;Signal;HPM_P1;HPM_P2
2022/12/11 00:01:34;;;;;;;177.93;38.47;;;0.00;99.90;;;;;;5119579;27;20078;-42
2022/12/11 00:03:59;;;;;;;186.57;39.85;;;-0.20;99.90;;;;;;5120966;27;20430;-45
2022/12/11 00:06:25;;;;;;;167.10;37.38;;;-0.10;99.90;;;;;;5136076;27;20043;-46
2022/12/11 00:08:52;;;;;;;147.27;36.03;;;0.00;99.90;;;;;;5128632;27;20073;-41
2022/12/11 00:11:18;;;;;;;151.32;36.35;;;-0.10;99.90;;;;;;5103512;27;20043;-42
2022/12/11 00:13:44;;;;;;;148.27;36.15;;;0.00;99.90;;;;;;5118308;27;20045;-42
2022/12/11 00:16:10;;;;;;;157.45;36.65;;;-0.10;99.90;;;;;;5121729;27;20078;-42
2022/12/11 00:18:36;;;;;;;163.88;38.45;;;-0.10;99.90;;;;;;5137732;27;20054;-43
2022/12/11 00:21:04;;;;;;;155.95;37.03;;;0.00;99.90;;;;;;5135658;27;20047;-46
2022/12/11 00:23:31;;;;;;;145.93;34.40;;;0.00;99.90;;;;;;5129838;27;20481;-43
2022/12/11 00:25:57;;;;;;;154.13;36.40;;;-0.10;99.90;;;;;;5138866;27;20107;-43
2022/12/11 00:28:22;;;;;;;137.85;36.05;;;0.00;99.90;;;;;;5126908;27;20644;-42
2022/12/11 00:30:48;;;;;;;158.90;36.88;;;-0.10;99.90;;;;;;5099267;27;20046;-43
2022/12/11 00:33:15;;;;;;;166.00;35.97;;;0.20;99.90;;;;;;5118184;27;20453;-42
2022/12/11 00:35:45;;;;;;;150.68;37.53;;;0.10;99.90;;;;;;5137141;27;20117;-42
2022/12/11 00:38:19;;;;;;;163.00;36.25;;;-0.10;99.90;;;;;;5138496;27;20038;-42
2022/12/11 00:40:45;;;;;;;134.40;35.63;;;0.20;99.90;;;;;;5132588;27;20427;-44
2022/12/11 00:43:11;;;;;;;151.68;35.70;;;0.10;99.90;;;;;;5132849;27;20063;-41
2022/12/11 00:45:39;;;;;;;141.32;35.10;;;0.20;99.90;;;;;;5124775;27;20050;-41
2022/12/11 00:48:05;;;;;;;141.93;34.70;;;0.20;99.90;;;;;;5118629;27;20450;-44
2022/12/11 00:50:31;;;;;;;154.25;35.45;;;0.20;99.90;;;;;;5139278;27;20379;-42
2022/12/11 00:52:57;;;;;;;151.55;37.72;;;0.20;99.90;;;;;;5131690;27;20507;-42
2022/12/11 00:55:24;;;;;;;178.55;38.70;;;0.00;99.90;;;;;;5118572;27;20043;-42
2022/12/11 00:57:53;;;;;;;166.43;37.90;;;0.20;99.90;;;;;;5117386;27;20043;-42
2022/12/11 01:00:19;;;;;;;167.23;36.95;;;0.20;99.90;;;;;;5117823;27;20092;-43
2022/12/11 01:02:45;;;;;;;171.90;39.03;;;0.00;99.90;;;;;;5118316;27;20055;-45
2022/12/11 01:05:10;;;;;;;185.95;38.33;;;0.20;99.90;;;;;;5118380;27;20035;-41
2022/12/11 01:07:36;;;;;;;174.77;38.85;;;0.00;99.90;;;;;;5116846;27;20039;-45
2022/12/11 01:12:48;;;;;;;136.32;35.03;;;0.00;99.90;;;;;;5117105;27;20496;-42
2022/12/11 01:15:14;;;;;;;146.10;37.15;;;0.10;99.90;;;;;;5081744;27;20055;-43
2022/12/11 01:17:39;;;;;;;159.77;35.90;;;0.30;99.90;;;;;;5120777;27;20456;-44
2022/12/11 01:20:05;;;;;;;155.30;37.10;;;0.00;99.90;;;;;;5138746;27;20045;-45
2022/12/11 01:22:31;;;;;;;156.35;38.30;;;0.00;99.90;;;;;;5120138;27;20046;-41
2022/12/11 01:24:57;;;;;;;136.73;35.63;;;0.10;99.90;;;;;;5129386;27;20093;-41
2022/12/11 01:27:22;;;;;;;153.35;36.72;;;0.00;99.90;;;;;;5119114;27;20134;-44
2022/12/11 01:29:48;;;;;;;136.10;36.25;;;0.10;99.90;;;;;;5117766;27;20863;-44
2022/12/11 01:32:14;;;;;;;145.23;36.20;;;0.10;99.90;;;;;;5103862;27;20518;-44
2022/12/11 01:34:40;;;;;;;133.05;34.33;;;0.20;99.90;;;;;;5119245;27;20501;-45
2022/12/11 01:37:06;;;;;;;128.43;33.50;;;0.30;99.90;;;;;;5138039;27;20047;-44
2022/12/11 01:39:31;;;;;;;128.80;31.40;;;0.10;99.90;;;;;;5138265;27;20042;-41
2022/12/11 01:41:59;;;;;;;137.05;32.92;;;0.40;99.90;;;;;;5133834;27;20047;-44
2022/12/11 01:44:25;;;;;;;135.25;32.50;;;0.30;99.90;;;;;;5117930;27;20047;-44
2022/12/11 01:46:51;;;;;;;123.90;32.55;;;0.10;99.90;;;;;;5117540;27;20050;-42
2022/12/11 01:49:19;;;;;;;125.43;33.33;;;0.10;99.90;;;;;;5107071;28;20043;-41
2022/12/11 01:52:01;;;;;;;137.20;33.78;;;0.20;99.90;;;;;;5131139;27;20054;-42
2022/12/11 01:54:28;;;;;;;130.02;31.67;;;0.40;99.90;;;;;;5131433;27;20038;-43
2022/12/11 01:56:58;;;;;;;143.93;33.90;;;0.20;99.90;;;;;;5099789;28;20051;-43
2022/12/11 01:59:27;;;;;;;147.55;34.47;;;0.40;99.90;;;;;;5116873;27;20070;-43
2022/12/11 02:02:01;;;;;;;164.07;33.83;;;0.40;99.90;;;;;;5124850;27;20043;-42
2022/12/11 02:04:27;;;;;;;145.90;32.17;;;0.20;99.90;;;;;;5138706;27;20042;-42
2022/12/11 02:06:53;;;;;;;147.45;34.88;;;0.20;99.90;;;;;;5138021;27;20038;-41
2022/12/11 02:09:22;;;;;;;139.93;33.13;;;0.50;99.90;;;;;;5136821;27;20053;-42
2022/12/11 02:12:18;;;;;;;135.65;33.10;;;0.40;99.90;;;;;;5133195;27;20507;-42
2022/12/11 02:15:04;;;;;;;145.57;34.17;;;0.20;99.90;;;;;;5123562;27;20515;-42
2022/12/11 02:18:08;;;;;;;147.38;33.53;;;0.20;99.90;;;;;;5136903;27;20476;-46
2022/12/11 02:20:36;;;;;;;132.20;33.23;;;0.50;99.90;;;;;;5122200;27;20044;-43
2022/12/11 02:23:11;;;;;;;140.73;33.03;;;0.40;99.90;;;;;;5125706;27;20779;-43
2022/12/11 02:26:15;;;;;;;127.78;33.10;;;0.50;99.90;;;;;;5137848;27;20061;-44
2022/12/11 02:28:46;;;;;;;134.80;32.97;;;0.20;99.90;;;;;;5031787;28;20052;-45
2022/12/11 02:31:34;;;;;;;128.20;31.63;;;0.40;99.90;;;;;;5016436;28;20492;-42
2022/12/11 02:34:05;;;;;;;130.18;32.63;;;0.40;99.90;;;;;;5019166;28;20045;-44
2022/12/11 02:36:36;;;;;;;126.78;33.63;;;0.30;99.90;;;;;;5031996;28;20620;-43
2022/12/11 02:39:04;;;;;;;120.43;31.73;;;0.30;99.90;;;;;;5032100;28;20064;-43
2022/12/11 02:41:32;;;;;;;115.88;34.15;;;0.20;99.90;;;;;;5033103;28;20981;-43
2022/12/11 02:44:00;;;;;;;162.32;36.65;;;0.40;99.90;;;;;;5024455;28;20052;-43
2022/12/11 02:46:27;;;;;;;128.80;32.20;;;0.50;99.90;;;;;;5034635;28;20203;-42
2022/12/11 02:48:55;;;;;;;140.50;34.33;;;0.40;99.90;;;;;;5023853;28;20051;-43
2022/12/11 02:51:25;;;;;;;130.88;34.47;;;0.50;99.90;;;;;;5033677;28;20133;-45
2022/12/11 02:53:55;;;;;;;136.23;32.63;;;0.20;99.90;;;;;;5004640;28;20538;-41
2022/12/11 02:56:35;;;;;;;130.68;34.08;;;0.30;99.90;;;;;;5028593;28;20045;-42
2022/12/11 02:59:07;;;;;;;132.32;34.80;;;0.40;99.90;;;;;;5005653;28;20201;-44
2022/12/11 03:01:33;;;;;;;134.85;36.20;;;0.40;99.90;;;;;;5019424;28;20041;-47
2022/12/11 03:03:58;;;;;;;131.52;34.53;;;0.20;99.90;;;;;;5027724;28;20037;-44
2022/12/11 03:06:33;;;;;;;148.30;35.53;;;0.50;99.90;;;;;;5098957;27;20055;-42
2022/12/11 03:08:58;;;;;;;146.90;35.33;;;0.40;99.90;;;;;;5132496;27;20596;-44
2022/12/11 03:11:24;;;;;;;139.10;36.08;;;0.20;99.90;;;;;;5136280;27;20441;-44
2022/12/11 03:13:51;;;;;;;131.75;34.17;;;0.40;99.90;;;;;;5127321;27;20040;-43
2022/12/11 03:16:22;;;;;;;139.77;34.25;;;0.50;99.90;;;;;;5100541;27;20429;-44
2022/12/11 03:19:02;;;;;;;152.02;36.40;;;0.40;99.90;;;;;;5118490;27;20058;-41
2022/12/11 03:21:45;;;;;;;143.68;37.95;;;0.20;99.90;;;;;;5129003;27;20035;-42
2022/12/11 03:24:20;;;;;;;151.82;37.33;;;0.40;99.90;;;;;;5140173;27;20042;-42
2022/12/11 03:26:55;;;;;;;138.85;36.20;;;0.20;99.90;;;;;;5127325;27;20050;-45
2022/12/11 03:29:35;;;;;;;155.18;38.75;;;0.50;99.90;;;;;;5119413;27;20047;-42
2022/12/11 03:32:09;;;;;;;140.75;34.30;;;0.20;99.90;;;;;;5123067;27;20058;-42
2022/12/11 03:34:44;;;;;;;147.77;36.70;;;0.50;99.90;;;;;;5139774;27;20038;-42
2022/12/11 03:37:13;;;;;;;153.65;39.20;;;0.50;99.90;;;;;;5120504;27;20484;-41
2022/12/11 03:39:43;;;;;;;145.25;39.85;;;0.40;99.90;;;;;;5139874;27;20518;-43
2022/12/11 03:42:12;;;;;;;140.25;39.60;;;0.50;99.90;;;;;;5139505;27;20103;-44
2022/12/11 03:44:39;;;;;;;171.00;37.90;;;0.50;99.90;;;;;;5139996;27;20358;-43
2022/12/11 03:47:08;;;;;;;161.40;41.63;;;0.30;99.90;;;;;;5117984;27;20439;-43
2022/12/11 03:49:39;;;;;;;123.80;35.55;;;0.50;99.90;;;;;;5132841;27;20509;-42
2022/12/11 03:52:06;;;;;;;150.95;37.90;;;0.30;99.90;;;;;;5113778;27;20129;-42
2022/12/11 03:54:33;;;;;;;156.32;41.15;;;0.50;99.90;;;;;;5119150;27;20035;-44
2022/12/11 03:57:02;;;;;;;136.73;34.65;;;0.50;99.90;;;;;;5132070;27;20874;-43
2022/12/11 03:59:28;;;;;;;135.98;35.47;;;0.30;99.90;;;;;;5119421;27;20047;-43
2022/12/11 04:01:54;;;;;;;137.85;36.33;;;0.30;99.90;;;;;;5118806;27;20054;-43
2022/12/11 04:04:19;;;;;;;127.30;34.38;;;0.40;99.90;;;;;;5118396;27;20123;-45
2022/12/11 04:06:45;;;;;;;144.48;36.78;;;0.60;99.90;;;;;;5118892;27;20043;-43
2022/12/11 04:09:11;;;;;;;140.77;36.50;;;0.60;99.90;;;;;;5098828;27;20150;-42
2022/12/11 04:11:38;;;;;;;136.90;36.28;;;0.40;99.90;;;;;;5121877;27;20444;-41
2022/12/11 04:16:55;;;;;;;118.15;32.60;;;0.50;99.90;;;;;;5118484;27;20512;-43
2022/12/11 04:24:39;;;;;;;134.60;33.72;;;0.50;99.90;;;;;;5139450;27;20043;-43
2022/12/11 04:27:05;;;;;;;128.30;34.63;;;0.30;99.90;;;;;;5136095;27;20043;-43
2022/12/11 04:29:31;;;;;;;123.47;33.80;;;0.60;99.90;;;;;;5118201;27;20065;-44
2022/12/11 04:31:57;;;;;;;115.78;32.10;;;0.40;99.90;;;;;;5118047;27;20054;-43
2022/12/11 04:34:22;;;;;;;118.13;31.38;;;0.40;99.90;;;;;;5098962;27;20161;-43
2022/12/11 04:36:48;;;;;;;127.13;32.58;;;0.60;99.90;;;;;;5117364;27;20043;-40
2022/12/11 04:39:14;;;;;;;120.10;33.75;;;0.50;99.90;;;;;;5117681;27;20445;-41
2022/12/11 04:41:40;;;;;;;124.03;33.88;;;0.30;99.90;;;;;;5099503;27;20467;-43
2022/12/11 04:44:06;;;;;;;110.13;33.38;;;0.60;99.90;;;;;;5127715;27;20134;-45
2022/12/11 04:46:32;;;;;;;114.65;31.25;;;0.30;99.90;;;;;;5138627;27;20038;-44
2022/12/11 04:48:59;;;;;;;119.35;33.30;;;0.50;99.90;;;;;;5128947;27;20043;-41
2022/12/11 04:51:26;;;;;;;113.47;31.00;;;0.60;99.90;;;;;;5121059;27;20139;-44
2022/12/11 04:53:52;;;;;;;101.80;32.17;;;0.30;99.90;;;;;;5133019;27;20146;-43
2022/12/11 04:56:18;;;;;;;115.32;34.33;;;0.30;99.90;;;;;;5121688;27;20035;-45
2022/12/11 04:58:44;;;;;;;114.50;34.38;;;0.50;99.90;;;;;;5125185;27;20888;-41
2022/12/11 05:01:16;;;;;;;123.72;34.47;;;0.60;99.90;;;;;;5132176;27;20047;-45
2022/12/11 05:03:42;;;;;;;120.57;34.78;;;0.40;99.90;;;;;;5128144;27;20088;-45
2022/12/11 05:06:09;;;;;;;131.07;35.50;;;0.60;99.90;;;;;;5080435;27;20122;-41
2022/12/11 05:08:36;;;;;;;122.35;32.35;;;0.60;99.90;;;;;;5116831;27;20123;-45
2022/12/11 05:11:05;;;;;;;128.90;32.17;;;0.50;99.90;;;;;;5119934;27;20043;-45
2022/12/11 05:13:31;;;;;;;135.27;31.23;;;0.60;99.90;;;;;;5118300;27;20043;-45
2022/12/11 05:15:57;;;;;;;122.15;29.98;;;0.50;99.90;;;;;;5120825;27;20102;-44
2022/12/11 05:18:23;;;;;;;104.53;30.92;;;0.40;99.90;;;;;;5109172;27;20043;-42
2022/12/11 05:20:56;;;;;;;105.22;29.33;;;0.60;99.90;;;;;;5120726;27;20039;-43
2022/12/11 05:23:22;;;;;;;;;;;0.50;99.90;;;;;;5138853;27;20464;-43
2022/12/11 05:25:55;;;;;;;110.90;30.95;;;0.50;99.90;;;;;;5137432;27;20429;-44
2022/12/11 05:28:23;;;;;;;91.40;29.17;;;0.50;99.90;;;;;;5136827;27;20050;-42
2022/12/11 05:31:14;;;;;;;106.32;30.17;;;0.50;99.90;;;;;;5123470;27;20042;-42
2022/12/11 05:33:40;;;;;;;105.03;32.00;;;0.50;99.90;;;;;;5118660;27;20111;-44
2022/12/11 05:36:07;;;;;;;130.07;33.05;;;0.50;99.90;;;;;;5091756;28;20063;-46
2022/12/11 05:38:33;;;;;;;127.30;35.58;;;0.60;99.90;;;;;;5116081;27;20114;-44
2022/12/11 05:41:01;;;;;;;142.55;34.70;;;0.70;99.90;;;;;;5116949;27;20396;-44
2022/12/11 05:43:29;;;;;;;127.93;34.22;;;0.50;99.90;;;;;;5117107;27;20134;-44
2022/12/11 05:45:55;;;;;;;132.55;32.08;;;0.50;99.90;;;;;;5116639;27;20136;-48
2022/12/11 05:48:21;;;;;;;141.02;31.95;;;0.70;99.90;;;;;;5116034;27;20124;-44
2022/12/11 05:51:00;;;;;;;143.35;32.25;;;0.50;99.90;;;;;;5116575;27;20039;-43
2022/12/11 05:53:27;;;;;;;140.65;30.83;;;0.70;99.90;;;;;;5129078;27;20065;-43
2022/12/11 05:55:53;;;;;;;112.25;30.77;;;0.50;99.90;;;;;;5125640;27;20072;-45
2022/12/11 05:58:19;;;;;;;121.18;31.33;;;0.50;99.90;;;;;;5120993;27;20079;-46
2022/12/11 06:00:46;;;;;;;152.60;31.50;;;0.50;99.90;;;;;;5137840;27;20042;-41
2022/12/11 06:03:12;;;;;;;127.93;31.88;;;0.60;99.90;;;;;;5119143;27;20077;-46
2022/12/11 06:05:39;;;;;;;124.25;32.78;;;0.70;99.90;;;;;;5128645;27;20579;-43
2022/12/11 06:08:05;;;;;;;124.72;31.23;;;0.70;99.90;;;;;;5131258;27;20036;-45
2022/12/11 06:10:31;;;;;;;148.02;32.63;;;0.70;99.90;;;;;;5129402;27;20134;-47
2022/12/11 06:12:56;;;;;;;146.65;32.47;;;0.50;99.90;;;;;;5128354;27;20039;-42
2022/12/11 06:15:22;;;;;;;110.93;29.80;;;0.60;99.90;;;;;;5137066;27;20548;-42
2022/12/11 06:17:48;;;;;;;126.10;31.13;;;0.70;99.90;;;;;;5140747;27;20050;-43
2022/12/11 06:20:13;;;;;;;136.65;31.08;;;0.70;99.90;;;;;;5122899;27;20427;-41
2022/12/11 06:22:39;;;;;;;131.20;30.30;;;0.50;99.90;;;;;;5140983;27;20044;-45
2022/12/11 06:25:05;;;;;;;140.50;31.63;;;0.60;99.90;;;;;;5129620;27;20040;-42
2022/12/11 06:27:31;;;;;;;154.38;32.72;;;0.70;99.90;;;;;;5101303;27;20062;-41
2022/12/11 06:29:56;;;;;;;131.02;31.38;;;0.60;99.90;;;;;;5120934;27;20047;-42
2022/12/11 06:32:22;;;;;;;122.38;31.23;;;0.70;99.90;;;;;;5101483;27;20309;-41
2022/12/11 06:34:47;;;;;;;146.60;32.75;;;0.60;99.90;;;;;;5119820;27;20042;-44
2022/12/11 06:37:13;;;;;;;118.68;31.35;;;0.50;99.90;;;;;;5137704;27;20045;-44
2022/12/11 06:39:39;;;;;;;129.02;32.47;;;0.50;99.90;;;;;;5140938;27;20105;-42
2022/12/11 06:42:04;;;;;;;128.60;31.73;;;0.60;99.90;;;;;;5121079;27;20142;-44
2022/12/11 06:44:30;;;;;;;132.93;34.90;;;0.70;99.90;;;;;;5101899;27;20557;-42
2022/12/11 06:46:56;;;;;;;127.35;34.17;;;0.70;99.90;;;;;;5119640;27;20502;-42
2022/12/11 06:49:21;;;;;;;125.20;33.30;;;0.60;99.90;;;;;;5119552;27;20043;-42
2022/12/11 06:51:47;;;;;;;144.25;37.22;;;0.50;99.90;;;;;;5100518;27;20043;-43
2022/12/11 06:54:13;;;;;;;129.80;34.45;;;0.70;99.90;;;;;;5132190;27;20130;-43
2022/12/11 06:56:38;;;;;;;139.32;34.08;;;0.50;99.90;;;;;;5127022;27;20077;-43
2022/12/11 06:59:04;;;;;;;141.20;35.20;;;0.70;99.90;;;;;;5140160;27;20046;-46
2022/12/11 07:01:30;;;;;;;133.90;36.50;;;0.70;99.90;;;;;;5122742;27;20039;-45
2022/12/11 07:03:57;;;;;;;140.25;34.97;;;0.70;99.90;;;;;;5100968;27;20141;-43
2022/12/11 07:06:24;;;;;;;134.30;37.60;;;0.70;99.90;;;;;;5123813;27;20050;-41
2022/12/11 07:08:50;;;;;;;148.30;34.80;;;0.50;99.90;;;;;;5139705;27;20043;-42
2022/12/11 07:11:17;;;;;;;131.32;34.20;;;0.60;99.90;;;;;;5136117;27;20031;-46
2022/12/11 07:13:44;;;;;;;136.63;36.40;;;0.60;99.90;;;;;;5140415;27;20035;-41
2022/12/11 07:16:12;;;;;;;135.85;35.17;;;0.50;99.90;;;;;;5140130;27;20042;-43
2022/12/11 07:18:39;;;;;;;137.52;36.83;;;0.60;99.90;;;;;;5127616;27;20057;-45
2022/12/11 07:21:06;;;;;;;129.63;34.75;;;0.70;99.90;;;;;;5125245;27;20043;-45
2022/12/11 07:23:33;;;;;;;143.55;35.92;;;0.70;99.90;;;;;;5140833;27;20053;-42
2022/12/11 07:26:04;;;;;;;128.73;34.85;;;0.50;99.90;;;;;;5140758;27;20057;-49
2022/12/11 07:28:29;;;;;;;152.63;38.53;;;0.70;99.90;;;;;;5121701;27;20042;-43
2022/12/11 07:30:55;;;;;;;131.05;36.00;;;0.70;99.90;;;;;;5140850;27;20465;-42
2022/12/11 07:33:20;;;;;;;132.98;34.45;;;0.70;99.90;;;;;;5126628;27;20051;-43
2022/12/11 07:35:46;;;;;;;142.75;34.67;;;0.70;99.90;;;;;;5140126;27;20130;-46
2022/12/11 07:38:12;;;;;;;131.98;36.88;;;0.80;99.90;;;;;;5139667;27;20046;-42
2022/12/11 07:40:37;;;;;;;149.98;40.45;;;0.70;99.90;;;;;;5139897;27;20385;-44
2022/12/11 07:43:03;;;;;;;172.40;55.10;;;0.70;99.90;;;;;;5140610;27;20042;-42
2022/12/11 07:45:29;;;;;;;215.75;81.40;;;0.70;99.90;;;;;;5140234;27;20483;-47
2022/12/11 07:47:54;;;;;;;146.85;45.30;;;0.70;99.90;;;;;;5140123;27;20072;-46
2022/12/11 07:50:20;;;;;;;146.63;44.22;;;0.70;99.90;;;;;;5133584;27;20061;-46
2022/12/11 07:52:45;;;;;;;165.27;53.25;;;0.70;99.90;;;;;;5119259;27;20177;-42
2022/12/11 07:55:11;;;;;;;156.07;45.28;;;0.70;99.90;;;;;;5119071;27;20428;-42
2022/12/11 07:57:37;;;;;;;141.68;50.08;;;0.80;99.90;;;;;;5131108;27;20050;-42
2022/12/11 08:00:04;;;;;;;158.70;51.58;;;0.70;99.90;;;;;;5139228;27;20496;-43
2022/12/11 08:02:29;;;;;;;169.20;52.47;;;0.60;99.90;;;;;;5121541;27;20061;-46
2022/12/11 08:04:55;;;;;;;156.43;51.47;;;0.60;99.90;;;;;;5121032;27;20061;-43
2022/12/11 08:07:21;;;;;;;175.32;55.80;;;0.60;99.90;;;;;;5118290;27;20540;-42
2022/12/11 08:09:46;;;;;;;140.25;45.33;;;0.80;99.90;;;;;;5132690;27;20421;-44
2022/12/11 08:12:12;;;;;;;141.80;38.95;;;0.70;99.90;;;;;;5123191;27;20047;-42
2022/12/11 08:14:38;;;;;;;150.45;46.78;;;0.60;99.90;;;;;;5132419;27;20039;-42
2022/12/11 08:17:03;;;;;;;148.32;40.70;;;0.70;99.90;;;;;;5130183;27;20137;-45
2022/12/11 08:19:29;;;;;;;145.07;43.65;;;0.60;99.90;;;;;;5139302;27;20126;-44
2022/12/11 08:21:55;;;;;;;164.85;51.45;;;0.80;99.90;;;;;;5108869;27;20050;-44
2022/12/11 08:24:20;;;;;;;147.40;41.00;;;0.70;99.90;;;;;;5123223;27;20329;-43
2022/12/11 08:26:47;;;;;;;206.20;62.20;;;0.70;99.90;;;;;;5126375;27;20504;-43
2022/12/11 08:29:13;;;;;;;145.90;41.80;;;0.60;99.90;;;;;;5118233;27;20050;-42
2022/12/11 08:31:40;;;;;;;127.95;38.53;;;0.70;99.90;;;;;;5102480;27;20045;-42
2022/12/11 08:34:05;;;;;;;136.50;39.63;;;0.60;99.90;;;;;;5126230;27;20049;-43
2022/12/11 08:36:31;;;;;;;141.45;41.03;;;0.70;99.90;;;;;;5127393;27;20111;-46
2022/12/11 08:38:57;;;;;;;158.60;49.90;;;0.80;99.90;;;;;;5132243;27;20117;-43
2022/12/11 08:41:27;;;;;;;163.18;48.45;;;0.60;99.90;;;;;;5137495;27;20106;-42
2022/12/11 08:43:54;;;;;;;147.40;43.85;;;0.60;99.90;;;;;;5135736;27;20193;-45
2022/12/11 08:46:31;;;;;;;166.25;51.08;;;0.80;99.90;;;;;;5106437;27;20031;-43
2022/12/11 08:48:57;;;;;;;138.02;41.00;;;0.80;99.90;;;;;;5122640;27;20072;-43
2022/12/11 08:51:26;;;;;;;152.10;42.28;;;0.90;99.90;;;;;;5134085;27;20035;-42
2022/12/11 08:53:55;;;;;;;154.82;46.70;;;0.70;99.90;;;;;;5129982;27;20046;-42
2022/12/11 08:56:22;;;;;;;169.07;49.88;;;0.80;99.90;;;;;;5134114;27;20147;-42
2022/12/11 08:58:48;;;;;;;157.80;43.33;;;0.70;99.90;;;;;;5134502;27;20111;-44
2022/12/11 09:01:17;;;;;;;148.13;44.50;;;0.80;99.90;;;;;;5137823;27;20418;-44
2022/12/11 09:03:43;;;;;;;172.20;53.53;;;0.70;99.90;;;;;;5128736;27;20126;-43
2022/12/11 09:06:11;;;;;;;140.95;42.28;;;0.90;99.90;;;;;;5118219;27;20041;-41
2022/12/11 09:08:37;;;;;;;143.80;44.03;;;0.70;99.90;;;;;;5137430;27;20074;-44
2022/12/11 09:11:26;;;;;;;123.80;39.05;;;0.90;99.90;;;;;;5134672;27;20047;-45
2022/12/11 09:13:53;;;;;;;117.93;34.65;;;0.80;99.90;;;;;;5116509;27;20883;-42
2022/12/11 09:16:21;;;;;;;127.30;37.85;;;0.80;99.90;;;;;;5121482;27;20035;-42
2022/12/11 09:18:48;;;;;;;150.98;45.75;;;1.00;99.90;;;;;;5122942;27;20758;-44
2022/12/11 09:21:16;;;;;;;141.55;41.58;;;0.80;99.90;;;;;;5102910;27;20042;-42
2022/12/11 09:23:42;;;;;;;155.20;49.47;;;1.00;99.90;;;;;;5122549;27;20378;-47
2022/12/11 09:26:12;;;;;;;146.43;42.70;;;0.90;99.90;;;;;;5128886;27;20118;-46
2022/12/11 09:28:39;;;;;;;140.85;38.35;;;0.80;99.90;;;;;;5116976;27;20121;-41
2022/12/11 09:31:10;;;;;;;131.05;42.00;;;0.80;99.90;;;;;;5109419;27;20087;-41
2022/12/11 09:33:36;;;;;;;138.75;42.15;;;0.80;99.90;;;;;;5124220;27;20047;-45
2022/12/11 09:36:02;;;;;;;122.68;40.53;;;1.00;99.90;;;;;;5127957;27;20046;-42
2022/12/11 09:38:30;;;;;;;136.18;39.85;;;0.90;99.90;;;;;;5116214;27;20043;-41
2022/12/11 09:40:56;;;;;;;120.68;39.53;;;1.00;99.90;;;;;;5117372;27;20042;-44
2022/12/11 09:43:37;;;;;;;118.13;40.65;;;0.80;99.90;;;;;;5116579;27;20153;-45
2022/12/11 09:46:08;;;;;;;118.38;40.72;;;0.90;99.90;;;;;;5101698;27;20039;-46
2022/12/11 09:48:35;;;;;;;117.78;34.95;;;1.10;99.90;;;;;;5114185;27;20384;-44
2022/12/11 09:51:11;;;;;;;127.18;45.60;;;1.10;99.90;;;;;;5127032;27;20661;-44
2022/12/11 09:53:37;;;;;;;128.65;37.85;;;1.10;99.90;;;;;;5132579;27;20051;-47
2022/12/11 09:56:08;;;;;;;112.38;37.80;;;1.10;99.90;;;;;;5128484;27;20562;-47
2022/12/11 09:58:52;;;;;;;112.28;37.47;;;1.10;99.90;;;;;;5133319;27;20043;-42
2022/12/11 10:01:18;;;;;;;122.45;40.40;;;1.10;99.90;;;;;;5126719;27;20047;-43
2022/12/11 10:04:06;;;;;;;106.28;36.42;;;1.20;99.90;;;;;;5141230;27;20053;-41
2022/12/11 10:06:41;;;;;;;122.82;40.60;;;1.20;99.90;;;;;;5126008;27;20072;-45
2022/12/11 10:09:28;;;;;;;109.60;39.35;;;1.10;99.90;;;;;;5141434;27;20078;-43
2022/12/11 10:11:54;;;;;;;101.18;36.22;;;1.10;99.90;;;;;;5100214;27;20498;-41
2022/12/11 10:14:34;;;;;;;102.78;36.58;;;1.10;99.90;;;;;;5123503;27;20220;-44
2022/12/11 10:17:33;;;;;;;101.50;35.42;;;1.10;99.90;;;;;;5137378;27;20485;-44
2022/12/11 10:20:17;;;;;;;115.75;43.88;;;1.30;99.90;;;;;;5129281;27;20049;-44
2022/12/11 10:22:43;;;;;;;102.18;37.30;;;1.30;99.90;;;;;;5115173;27;20042;-44
2022/12/11 10:25:20;;;;;;;99.32;37.85;;;1.20;99.90;;;;;;5130386;27;20038;-46
2022/12/11 10:27:45;;;;;;;99.07;34.60;;;1.20;99.90;;;;;;5126401;27;20058;-42
2022/12/11 10:30:18;;;;;;;99.78;35.08;;;1.00;99.90;;;;;;5121066;27;20815;-42
2022/12/11 10:33:18;;;;;;;94.10;32.38;;;1.00;99.90;;;;;;5133135;27;20129;-42
2022/12/11 10:35:55;;;;;;;90.38;34.20;;;1.10;99.90;;;;;;5125402;27;20130;-42
2022/12/11 10:38:29;;;;;;;101.78;40.17;;;1.20;99.90;;;;;;5137834;27;20434;-43
2022/12/11 10:41:25;;;;;;;96.22;34.42;;;1.20;99.90;;;;;;5120319;27;20054;-43
2022/12/11 10:43:52;;;;;;;88.18;33.10;;;1.20;99.90;;;;;;5109039;27;20110;-46
2022/12/11 10:46:27;;;;;;;90.18;32.85;;;1.20;99.90;;;;;;5120770;27;20118;-47
2022/12/11 10:48:56;;;;;;;89.40;32.35;;;1.10;99.90;;;;;;5126004;27;20058;-43
2022/12/11 10:51:32;;;;;;;84.82;31.60;;;1.20;99.90;;;;;;5138378;27;20196;-44
2022/12/11 10:54:30;;;;;;;96.00;33.08;;;1.30;99.90;;;;;;5122475;27;20692;-45
2022/12/11 10:56:56;;;;;;;90.68;33.13;;;1.20;99.90;;;;;;5115864;27;20054;-45
2022/12/11 10:59:31;;;;;;;88.57;33.83;;;1.30;99.90;;;;;;5139140;27;20046;-45
2022/12/11 11:01:57;;;;;;;85.15;32.08;;;1.20;99.90;;;;;;5117720;27;20058;-44
2022/12/11 11:04:31;;;;;;;81.65;31.77;;;1.20;99.90;;;;;;5133340;27;20422;-47
2022/12/11 11:07:11;;;;;;;87.10;32.97;;;1.20;99.90;;;;;;5138844;27;20046;-43
2022/12/11 11:09:38;;;;;;;89.13;35.08;;;1.20;99.90;;;;;;5121071;27;20126;-45
2022/12/11 11:12:15;;;;;;;87.43;31.77;;;1.40;99.90;;;;;;5121825;27;20062;-45
2022/12/11 11:14:41;;;;;;;89.10;31.55;;;1.20;99.90;;;;;;5113208;27;20043;-48
2022/12/11 11:17:14;;;;;;;91.97;34.05;;;1.30;99.90;;;;;;5129645;27;20771;-47
2022/12/11 11:19:40;;;;;;;82.53;34.40;;;1.40;99.90;;;;;;5118543;27;20631;-45
2022/12/11 11:22:11;;;;;;;84.82;33.38;;;1.20;99.90;;;;;;5118728;27;20073;-45
2022/12/11 11:24:55;;;;;;;80.47;30.83;;;1.40;99.90;;;;;;5118096;27;20076;-47
2022/12/11 11:27:27;;;;;;;;;;;1.30;99.90;;;;;;5118200;27;20155;-45
2022/12/11 11:29:55;;;;;;;90.75;34.10;;;1.20;99.90;;;;;;5099324;27;19933;-44
2022/12/11 11:32:25;;;;;;;78.70;31.83;;;1.30;99.90;;;;;;5118066;27;20051;-44
2022/12/11 11:34:51;;;;;;;85.70;32.65;;;1.40;99.90;;;;;;5117875;27;20051;-50
2022/12/11 11:37:53;;;;;;;86.20;32.75;;;1.40;99.90;;;;;;5131697;27;20058;-46
2022/12/11 11:40:21;;;;;;;71.72;32.60;;;1.30;99.90;;;;;;5014354;28;20076;-43
2022/12/11 11:43:02;;;;;;;71.90;32.63;;;1.40;99.90;;;;;;5014268;28;20141;-43
2022/12/11 11:45:33;;;;;;;72.85;32.15;;;1.50;99.90;;;;;;5013666;28;20062;-46
2022/12/11 11:48:20;;;;;;;70.03;31.52;;;1.30;99.90;;;;;;4997351;28;20049;-47
2022/12/11 11:50:49;;;;;;;74.05;32.83;;;1.30;99.90;;;;;;5015012;28;20504;-49
2022/12/11 11:53:36;;;;;;;72.97;30.80;;;1.30;99.90;;;;;;5028089;28;20141;-44
2022/12/11 11:56:27;;;;;;;78.57;31.17;;;1.40;99.90;;;;;;5025983;28;20054;-45
2022/12/11 11:59:15;;;;;;;67.82;31.38;;;1.50;99.90;;;;;;5025540;28;20152;-44
2022/12/11 12:01:42;;;;;;;73.15;33.08;;;1.50;99.90;;;;;;5014004;28;20068;-45
2022/12/11 12:04:09;;;;;;;63.95;30.27;;;1.40;99.90;;;;;;5033828;28;20110;-47
2022/12/11 12:06:58;;;;;;;69.15;30.77;;;1.50;99.90;;;;;;5026780;28;20061;-46
2022/12/11 12:10:01;;;;;;;62.15;30.10;;;1.40;99.90;;;;;;4939064;28;20054;-41
2022/12/11 12:12:57;;;;;;;63.17;29.90;;;1.50;99.90;;;;;;4955282;28;20050;-43
2022/12/11 12:15:37;;;;;;;68.88;32.20;;;1.50;99.90;;;;;;4937496;28;20518;-44
2022/12/11 12:18:21;;;;;;;65.28;31.80;;;1.60;99.90;;;;;;5032961;28;20103;-46
2022/12/11 12:20:59;;;;;;;59.63;30.85;;;1.40;99.90;;;;;;5016670;28;20073;-44
2022/12/11 12:23:37;;;;;;;60.92;29.40;;;1.40;99.90;;;;;;5033536;28;20103;-40
2022/12/11 12:26:12;;;;;;;61.63;30.77;;;1.50;99.90;;;;;;5033065;28;20048;-41
2022/12/11 12:28:52;;;;;;;57.78;29.20;;;1.50;99.90;;;;;;5033401;28;20159;-42
2022/12/11 12:31:44;;;;;;;64.03;30.58;;;1.50;99.90;;;;;;5033326;28;20059;-45
2022/12/11 12:34:19;;;;;;;55.97;28.75;;;1.50;99.90;;;;;;5000481;28;20769;-44
2022/12/11 12:36:59;;;;;;;61.55;30.13;;;1.50;99.90;;;;;;5031758;28;20218;-42
2022/12/11 12:39:28;;;;;;;54.97;29.30;;;1.60;99.90;;;;;;5033889;28;20112;-45
2022/12/11 12:41:54;;;;;;;54.00;28.65;;;1.40;99.90;;;;;;5033262;28;20514;-42
2022/12/11 12:44:22;;;;;;;52.20;28.75;;;1.50;99.90;;;;;;5033024;28;20136;-45
2022/12/11 12:47:02;;;;;;;60.30;29.92;;;1.50;99.90;;;;;;5084582;27;20059;-43
2022/12/11 12:49:41;;;;;;;50.97;27.63;;;1.40;99.90;;;;;;5100139;27;20058;-44
2022/12/11 12:52:17;;;;;;;53.40;28.17;;;1.50;99.90;;;;;;5122872;27;20050;-46
2022/12/11 12:55:12;;;;;;;54.83;29.23;;;1.50;99.90;;;;;;5117882;27;20146;-43